Modoc, Indiana
Current Conditions -  °F | °C
As of 10:53 PM on Saturday 22 Nov 2014 (Local Time) from KMIE Reporting Station
Light Rain Light Rain  
Wind Chill: 52°   Ceiling: 8000
Heat Index: 52°   Visibility: 10mi
Dew Point: 38°   Wind: 13mph
Humidity: 59%   Direction: 200°SSW
Pressure: 29.99"   Gusts: 20mph
Location:  40.05°N, 85.13°W
Report Text: KMIE 230353Z AUTO 20011G17KT 10SM -RA FEW043 BKN080 OVC100 11/03 A2999 RMK AO2 RAB11E20B40 SLP155 P0000 T01110033
Loading
Personal Weather Stations






























Interactive Weather Map New forecast layout! Learn more

10-Day Weather Forecast

Advertisements
Track Severe Weather on mobile